sensor_id;sensor_type;location;lat;lon;timestamp;temperature;humidity
75170;SHT31;63749;49.186;9.222;2024-03-07T00:00:12;3.65;98.44
75170;SHT31;63749;49.186;9.222;2024-03-07T00:02:49;3.54;98.29
75170;SHT31;63749;49.186;9.222;2024-03-07T00:05:15;3.52;98.49
75170;SHT31;63749;49.186;9.222;2024-03-07T00:07:41;3.54;98.35
75170;SHT31;63749;49.186;9.222;2024-03-07T00:10:06;3.41;98.26
75170;SHT31;63749;49.186;9.222;2024-03-07T00:12:33;3.44;98.48
75170;SHT31;63749;49.186;9.222;2024-03-07T00:15:01;3.50;98.29
75170;SHT31;63749;49.186;9.222;2024-03-07T00:17:26;3.44;98.10
75170;SHT31;63749;49.186;9.222;2024-03-07T00:19:51;3.54;97.97
75170;SHT31;63749;49.186;9.222;2024-03-07T00:22:17;3.55;97.90
75170;SHT31;63749;49.186;9.222;2024-03-07T00:24:42;3.61;97.48
75170;SHT31;63749;49.186;9.222;2024-03-07T00:27:08;3.52;97.65
75170;SHT31;63749;49.186;9.222;2024-03-07T00:29:33;3.42;97.84
75170;SHT31;63749;49.186;9.222;2024-03-07T00:32:01;3.42;97.89
75170;SHT31;63749;49.186;9.222;2024-03-07T00:34:26;3.39;97.85
75170;SHT31;63749;49.186;9.222;2024-03-07T00:36:52;3.41;97.93
75170;SHT31;63749;49.186;9.222;2024-03-07T00:39:17;3.39;97.97
75170;SHT31;63749;49.186;9.222;2024-03-07T00:41:43;3.41;97.99
75170;SHT31;63749;49.186;9.222;2024-03-07T00:44:08;3.39;98.22
75170;SHT31;63749;49.186;9.222;2024-03-07T00:46:35;3.32;98.21
75170;SHT31;63749;49.186;9.222;2024-03-07T00:49:01;3.27;98.23
75170;SHT31;63749;49.186;9.222;2024-03-07T00:51:27;3.23;98.31
75170;SHT31;63749;49.186;9.222;2024-03-07T00:53:53;3.27;98.62
75170;SHT31;63749;49.186;9.222;2024-03-07T00:56:18;3.31;98.47
75170;SHT31;63749;49.186;9.222;2024-03-07T00:58:44;3.26;98.26
75170;SHT31;63749;49.186;9.222;2024-03-07T01:01:09;3.24;98.27
75170;SHT31;63749;49.186;9.222;2024-03-07T01:03:38;3.18;98.32
75170;SHT31;63749;49.186;9.222;2024-03-07T01:06:03;3.16;98.23
75170;SHT31;63749;49.186;9.222;2024-03-07T01:08:29;3.13;98.19
75170;SHT31;63749;49.186;9.222;2024-03-07T01:10:57;3.08;98.26
75170;SHT31;63749;49.186;9.222;2024-03-07T01:13:23;3.06;98.36
75170;SHT31;63749;49.186;9.222;2024-03-07T01:15:49;2.99;98.21
75170;SHT31;63749;49.186;9.222;2024-03-07T01:18:15;2.96;98.46
75170;SHT31;63749;49.186;9.222;2024-03-07T01:20:40;3.01;98.46
75170;SHT31;63749;49.186;9.222;2024-03-07T01:23:06;2.99;98.50
75170;SHT31;63749;49.186;9.222;2024-03-07T01:25:33;2.97;98.60
75170;SHT31;63749;49.186;9.222;2024-03-07T01:28:01;2.92;98.50
75170;SHT31;63749;49.186;9.222;2024-03-07T01:30:29;2.85;98.39
75170;SHT31;63749;49.186;9.222;2024-03-07T01:32:54;2.82;98.44
75170;SHT31;63749;49.186;9.222;2024-03-07T01:35:20;2.80;98.57
75170;SHT31;63749;49.186;9.222;2024-03-07T01:37:46;2.77;98.55
75170;SHT31;63749;49.186;9.222;2024-03-07T01:40:11;2.75;98.38
75170;SHT31;63749;49.186;9.222;2024-03-07T01:42:37;2.66;98.33
75170;SHT31;63749;49.186;9.222;2024-03-07T01:45:03;2.76;97.93
75170;SHT31;63749;49.186;9.222;2024-03-07T01:47:28;2.72;97.91
75170;SHT31;63749;49.186;9.222;2024-03-07T01:49:54;2.62;97.88
75170;SHT31;63749;49.186;9.222;2024-03-07T01:52:19;2.55;97.89
75170;SHT31;63749;49.186;9.222;2024-03-07T01:54:46;2.52;97.92
75170;SHT31;63749;49.186;9.222;2024-03-07T01:57:12;2.53;97.92
75170;SHT31;63749;49.186;9.222;2024-03-07T01:59:38;2.52;98.00
75170;SHT31;63749;49.186;9.222;2024-03-07T02:02:05;2.50;97.74
75170;SHT31;63749;49.186;9.222;2024-03-07T02:04:30;2.49;97.69
75170;SHT31;63749;49.186;9.222;2024-03-07T02:06:56;2.52;97.54
75170;SHT31;63749;49.186;9.222;2024-03-07T02:09:21;2.48;97.46
75170;SHT31;63749;49.186;9.222;2024-03-07T02:11:48;2.37;97.20
75170;SHT31;63749;49.186;9.222;2024-03-07T02:14:14;2.32;97.52
75170;SHT31;63749;49.186;9.222;2024-03-07T02:16:39;2.24;97.45
75170;SHT31;63749;49.186;9.222;2024-03-07T02:19:05;2.11;97.56
75170;SHT31;63749;49.186;9.222;2024-03-07T02:21:31;2.06;97.68
75170;SHT31;63749;49.186;9.222;2024-03-07T02:23:57;2.04;98.03
75170;SHT31;63749;49.186;9.222;2024-03-07T02:26:23;2.04;97.89
75170;SHT31;63749;49.186;9.222;2024-03-07T02:28:48;1.98;97.84
75170;SHT31;63749;49.186;9.222;2024-03-07T02:31:14;1.94;97.88
75170;SHT31;63749;49.186;9.222;2024-03-07T02:33:39;2.06;97.90
75170;SHT31;63749;49.186;9.222;2024-03-07T02:36:05;1.97;97.83
75170;SHT31;63749;49.186;9.222;2024-03-07T02:38:30;1.86;97.84
75170;SHT31;63749;49.186;9.222;2024-03-07T02:40:56;1.86;98.08
75170;SHT31;63749;49.186;9.222;2024-03-07T02:43:23;1.87;98.35
75170;SHT31;63749;49.186;9.222;2024-03-07T02:45:49;1.87;98.38
75170;SHT31;63749;49.186;9.222;2024-03-07T02:48:15;1.81;98.30
75170;SHT31;63749;49.186;9.222;2024-03-07T02:50:40;1.91;98.17
75170;SHT31;63749;49.186;9.222;2024-03-07T02:53:05;1.83;98.15
75170;SHT31;63749;49.186;9.222;2024-03-07T02:55:32;1.81;98.08
75170;SHT31;63749;49.186;9.222;2024-03-07T02:57:57;1.84;98.13
75170;SHT31;63749;49.186;9.222;2024-03-07T03:00:24;1.86;98.03
75170;SHT31;63749;49.186;9.222;2024-03-07T03:02:55;1.84;98.02
75170;SHT31;63749;49.186;9.222;2024-03-07T03:05:21;1.79;97.84
75170;SHT31;63749;49.186;9.222;2024-03-07T03:07:46;1.83;97.84
75170;SHT31;63749;49.186;9.222;2024-03-07T03:10:25;1.66;97.55
75170;SHT31;63749;49.186;9.222;2024-03-07T03:12:55;1.60;97.61
75170;SHT31;63749;49.186;9.222;2024-03-07T03:15:23;1.52;97.93
75170;SHT31;63749;49.186;9.222;2024-03-07T03:17:50;1.48;97.91
75170;SHT31;63749;49.186;9.222;2024-03-07T03:20:15;1.50;98.19
75170;SHT31;63749;49.186;9.222;2024-03-07T03:22:53;1.53;98.06
75170;SHT31;63749;49.186;9.222;2024-03-07T03:25:20;1.56;98.18
75170;SHT31;63749;49.186;9.222;2024-03-07T03:27:49;1.49;98.23
75170;SHT31;63749;49.186;9.222;2024-03-07T03:30:15;1.48;98.30
75170;SHT31;63749;49.186;9.222;2024-03-07T03:32:49;1.57;98.11
75170;SHT31;63749;49.186;9.222;2024-03-07T03:35:15;1.59;98.26
75170;SHT31;63749;49.186;9.222;2024-03-07T03:37:43;1.55;97.99
75170;SHT31;63749;49.186;9.222;2024-03-07T03:40:10;1.46;97.86
75170;SHT31;63749;49.186;9.222;2024-03-07T03:42:39;1.36;98.12
75170;SHT31;63749;49.186;9.222;2024-03-07T03:45:06;1.35;98.23
75170;SHT31;63749;49.186;9.222;2024-03-07T03:47:36;1.38;98.23
75170;SHT31;63749;49.186;9.222;2024-03-07T03:50:06;1.29;98.28
75170;SHT31;63749;49.186;9.222;2024-03-07T03:52:32;1.29;98.33
75170;SHT31;63749;49.186;9.222;2024-03-07T03:54:59;1.22;98.20
75170;SHT31;63749;49.186;9.222;2024-03-07T03:57:25;1.08;98.23
75170;SHT31;63749;49.186;9.222;2024-03-07T03:59:51;1.04;98.59
75170;SHT31;63749;49.186;9.222;2024-03-07T04:02:17;1.04;98.86
75170;SHT31;63749;49.186;9.222;2024-03-07T04:04:43;0.97;98.60
75170;SHT31;63749;49.186;9.222;2024-03-07T04:07:09;0.95;98.75
75170;SHT31;63749;49.186;9.222;2024-03-07T04:09:34;0.98;99.22
75170;SHT31;63749;49.186;9.222;2024-03-07T04:12:00;0.90;99.14
75170;SHT31;63749;49.186;9.222;2024-03-07T04:14:26;0.87;99.55
75170;SHT31;63749;49.186;9.222;2024-03-07T04:16:51;0.81;99.29
75170;SHT31;63749;49.186;9.222;2024-03-07T04:19:17;0.74;99.51
75170;SHT31;63749;49.186;9.222;2024-03-07T04:21:45;0.67;99.44
75170;SHT31;63749;49.186;9.222;2024-03-07T04:24:11;0.70;99.73
75170;SHT31;63749;49.186;9.222;2024-03-07T04:26:37;0.61;99.42
75170;SHT31;63749;49.186;9.222;2024-03-07T04:29:02;0.61;99.67
75170;SHT31;63749;49.186;9.222;2024-03-07T04:31:28;0.64;99.83
75170;SHT31;63749;49.186;9.222;2024-03-07T04:33:53;0.66;99.68
75170;SHT31;63749;49.186;9.222;2024-03-07T04:36:18;0.66;99.66
75170;SHT31;63749;49.186;9.222;2024-03-07T04:38:43;0.60;99.63
75170;SHT31;63749;49.186;9.222;2024-03-07T04:41:11;0.59;99.74
75170;SHT31;63749;49.186;9.222;2024-03-07T04:43:36;0.57;99.64
75170;SHT31;63749;49.186;9.222;2024-03-07T04:46:02;0.53;99.57
75170;SHT31;63749;49.186;9.222;2024-03-07T04:48:28;0.53;99.63
75170;SHT31;63749;49.186;9.222;2024-03-07T04:50:53;0.53;99.64
75170;SHT31;63749;49.186;9.222;2024-03-07T04:53:18;0.53;99.45
75170;SHT31;63749;49.186;9.222;2024-03-07T04:55:44;0.53;99.55
75170;SHT31;63749;49.186;9.222;2024-03-07T04:58:09;0.49;99.27
75170;SHT31;63749;49.186;9.222;2024-03-07T05:00:34;0.54;99.56
75170;SHT31;63749;49.186;9.222;2024-03-07T05:02:59;0.49;99.48
75170;SHT31;63749;49.186;9.222;2024-03-07T05:05:25;0.54;99.79
75170;SHT31;63749;49.186;9.222;2024-03-07T05:07:52;0.50;99.80
75170;SHT31;63749;49.186;9.222;2024-03-07T05:10:17;0.47;99.74
75170;SHT31;63749;49.186;9.222;2024-03-07T05:12:42;0.38;99.53
75170;SHT31;63749;49.186;9.222;2024-03-07T05:15:08;0.36;99.51
75170;SHT31;63749;49.186;9.222;2024-03-07T05:17:36;0.43;99.70
75170;SHT31;63749;49.186;9.222;2024-03-07T05:20:05;0.40;99.62
75170;SHT31;63749;49.186;9.222;2024-03-07T05:22:38;0.33;99.57
75170;SHT31;63749;49.186;9.222;2024-03-07T05:25:09;0.39;99.89
75170;SHT31;63749;49.186;9.222;2024-03-07T05:27:36;0.33;99.95
75170;SHT31;63749;49.186;9.222;2024-03-07T05:30:03;0.32;99.98
75170;SHT31;63749;49.186;9.222;2024-03-07T05:32:30;0.39;99.92
75170;SHT31;63749;49.186;9.222;2024-03-07T05:34:56;0.29;99.63
75170;SHT31;63749;49.186;9.222;2024-03-07T05:37:22;0.25;99.31
75170;SHT31;63749;49.186;9.222;2024-03-07T05:39:48;0.19;99.10
75170;SHT31;63749;49.186;9.222;2024-03-07T05:42:13;0.18;99.14
75170;SHT31;63749;49.186;9.222;2024-03-07T05:44:43;0.15;99.12
75170;SHT31;63749;49.186;9.222;2024-03-07T05:47:08;0.12;98.87
75170;SHT31;63749;49.186;9.222;2024-03-07T05:49:39;0.22;99.02
75170;SHT31;63749;49.186;9.222;2024-03-07T05:52:05;0.26;99.03
75170;SHT31;63749;49.186;9.222;2024-03-07T05:54:34;0.30;99.00
75170;SHT31;63749;49.186;9.222;2024-03-07T05:57:00;0.23;98.80
75170;SHT31;63749;49.186;9.222;2024-03-07T05:59:26;0.26;98.78
75170;SHT31;63749;49.186;9.222;2024-03-07T06:01:53;0.29;98.76
75170;SHT31;63749;49.186;9.222;2024-03-07T06:04:19;0.25;98.60
75170;SHT31;63749;49.186;9.222;2024-03-07T06:06:44;0.29;98.54
75170;SHT31;63749;49.186;9.222;2024-03-07T06:09:13;0.26;98.54
75170;SHT31;63749;49.186;9.222;2024-03-07T06:11:39;0.20;98.38
75170;SHT31;63749;49.186;9.222;2024-03-07T06:14:08;0.30;98.41
75170;SHT31;63749;49.186;9.222;2024-03-07T06:16:36;0.39;98.18
75170;SHT31;63749;49.186;9.222;2024-03-07T06:19:04;0.53;97.97
75170;SHT31;63749;49.186;9.222;2024-03-07T06:21:32;0.57;97.59
75170;SHT31;63749;49.186;9.222;2024-03-07T06:23:59;0.68;97.10
75170;SHT31;63749;49.186;9.222;2024-03-07T06:26:35;0.77;96.65
75170;SHT31;63749;49.186;9.222;2024-03-07T06:29:13;0.78;96.62
75170;SHT31;63749;49.186;9.222;2024-03-07T06:31:39;0.85;96.59
75170;SHT31;63749;49.186;9.222;2024-03-07T06:34:06;0.90;96.69
75170;SHT31;63749;49.186;9.222;2024-03-07T06:36:32;0.92;96.76
75170;SHT31;63749;49.186;9.222;2024-03-07T06:38:58;0.90;96.70
75170;SHT31;63749;49.186;9.222;2024-03-07T06:41:23;0.88;96.95
75170;SHT31;63749;49.186;9.222;2024-03-07T06:43:50;0.88;97.12
75170;SHT31;63749;49.186;9.222;2024-03-07T06:46:16;0.97;97.35
75170;SHT31;63749;49.186;9.222;2024-03-07T06:48:44;0.99;97.28
75170;SHT31;63749;49.186;9.222;2024-03-07T06:51:09;1.05;96.45
75170;SHT31;63749;49.186;9.222;2024-03-07T06:53:35;1.07;96.48
75170;SHT31;63749;49.186;9.222;2024-03-07T06:56:01;1.14;95.96
75170;SHT31;63749;49.186;9.222;2024-03-07T06:58:26;1.25;95.55
75170;SHT31;63749;49.186;9.222;2024-03-07T07:00:52;1.36;95.47
75170;SHT31;63749;49.186;9.222;2024-03-07T07:03:20;1.50;95.47
75170;SHT31;63749;49.186;9.222;2024-03-07T07:05:48;1.70;95.14
75170;SHT31;63749;49.186;9.222;2024-03-07T07:08:13;1.90;94.40
75170;SHT31;63749;49.186;9.222;2024-03-07T07:10:39;2.03;94.61
75170;SHT31;63749;49.186;9.222;2024-03-07T07:13:05;2.11;93.57
75170;SHT31;63749;49.186;9.222;2024-03-07T07:15:31;2.24;93.55
75170;SHT31;63749;49.186;9.222;2024-03-07T07:17:56;2.31;92.76
75170;SHT31;63749;49.186;9.222;2024-03-07T07:20:23;2.41;92.75
75170;SHT31;63749;49.186;9.222;2024-03-07T07:22:49;2.50;91.73
75170;SHT31;63749;49.186;9.222;2024-03-07T07:25:15;2.58;92.04
75170;SHT31;63749;49.186;9.222;2024-03-07T07:27:48;2.68;92.22
75170;SHT31;63749;49.186;9.222;2024-03-07T07:30:16;2.71;91.88
75170;SHT31;63749;49.186;9.222;2024-03-07T07:32:43;2.79;91.28
75170;SHT31;63749;49.186;9.222;2024-03-07T07:35:09;2.90;91.88
75170;SHT31;63749;49.186;9.222;2024-03-07T07:37:40;2.96;91.89
75170;SHT31;63749;49.186;9.222;2024-03-07T07:40:07;3.11;92.02
75170;SHT31;63749;49.186;9.222;2024-03-07T07:42:38;3.32;92.30
75170;SHT31;63749;49.186;9.222;2024-03-07T07:45:08;3.41;91.80
75170;SHT31;63749;49.186;9.222;2024-03-07T07:47:39;3.62;92.07
75170;SHT31;63749;49.186;9.222;2024-03-07T07:50:10;3.76;92.11
75170;SHT31;63749;49.186;9.222;2024-03-07T07:52:44;3.85;91.51
75170;SHT31;63749;49.186;9.222;2024-03-07T07:55:11;3.96;90.15
75170;SHT31;63749;49.186;9.222;2024-03-07T07:57:47;4.03;90.19
75170;SHT31;63749;49.186;9.222;2024-03-07T08:00:18;4.14;89.84
75170;SHT31;63749;49.186;9.222;2024-03-07T08:03:02;4.36;90.79
75170;SHT31;63749;49.186;9.222;2024-03-07T08:05:33;4.46;90.28
75170;SHT31;63749;49.186;9.222;2024-03-07T08:08:01;4.37;89.01
75170;SHT31;63749;49.186;9.222;2024-03-07T08:10:30;4.50;90.09
75170;SHT31;63749;49.186;9.222;2024-03-07T08:12:57;4.47;88.84
75170;SHT31;63749;49.186;9.222;2024-03-07T08:15:22;4.36;88.99
75170;SHT31;63749;49.186;9.222;2024-03-07T08:17:48;4.47;88.60
75170;SHT31;63749;49.186;9.222;2024-03-07T08:20:16;4.48;87.98
75170;SHT31;63749;49.186;9.222;2024-03-07T08:22:44;4.82;88.04
75170;SHT31;63749;49.186;9.222;2024-03-07T08:25:10;4.95;87.84
75170;SHT31;63749;49.186;9.222;2024-03-07T08:27:37;5.02;87.73
75170;SHT31;63749;49.186;9.222;2024-03-07T08:30:04;5.15;87.49
75170;SHT31;63749;49.186;9.222;2024-03-07T08:32:32;5.15;86.07
75170;SHT31;63749;49.186;9.222;2024-03-07T08:34:59;5.37;87.71
75170;SHT31;63749;49.186;9.222;2024-03-07T08:37:26;5.46;86.22
75170;SHT31;63749;49.186;9.222;2024-03-07T08:39:52;5.60;87.50
75170;SHT31;63749;49.186;9.222;2024-03-07T08:42:17;5.65;86.35
75170;SHT31;63749;49.186;9.222;2024-03-07T08:44:43;5.75;85.77
75170;SHT31;63749;49.186;9.222;2024-03-07T08:47:08;5.74;83.82
75170;SHT31;63749;49.186;9.222;2024-03-07T08:49:35;5.84;84.59
75170;SHT31;63749;49.186;9.222;2024-03-07T08:52:00;6.01;82.91
75170;SHT31;63749;49.186;9.222;2024-03-07T08:54:26;5.95;82.47
75170;SHT31;63749;49.186;9.222;2024-03-07T08:56:51;6.02;83.35
75170;SHT31;63749;49.186;9.222;2024-03-07T08:59:17;5.87;82.96
75170;SHT31;63749;49.186;9.222;2024-03-07T09:01:43;5.78;81.84
75170;SHT31;63749;49.186;9.222;2024-03-07T09:04:09;5.94;81.70
75170;SHT31;63749;49.186;9.222;2024-03-07T09:06:34;6.08;82.24
75170;SHT31;63749;49.186;9.222;2024-03-07T09:09:00;6.37;83.55
75170;SHT31;63749;49.186;9.222;2024-03-07T09:11:25;6.60;82.30
75170;SHT31;63749;49.186;9.222;2024-03-07T09:13:50;6.54;80.83
75170;SHT31;63749;49.186;9.222;2024-03-07T09:16:16;6.84;83.13
75170;SHT31;63749;49.186;9.222;2024-03-07T09:18:41;6.93;78.26
75170;SHT31;63749;49.186;9.222;2024-03-07T09:21:07;7.03;77.89
75170;SHT31;63749;49.186;9.222;2024-03-07T09:23:34;7.03;76.53
75170;SHT31;63749;49.186;9.222;2024-03-07T09:25:59;7.19;75.98
75170;SHT31;63749;49.186;9.222;2024-03-07T09:28:24;7.26;77.43
75170;SHT31;63749;49.186;9.222;2024-03-07T09:30:50;7.08;75.78
75170;SHT31;63749;49.186;9.222;2024-03-07T09:33:16;7.35;76.21
75170;SHT31;63749;49.186;9.222;2024-03-07T09:35:45;7.58;75.12
75170;SHT31;63749;49.186;9.222;2024-03-07T09:38:10;7.53;74.71
75170;SHT31;63749;49.186;9.222;2024-03-07T09:40:37;7.61;75.25
75170;SHT31;63749;49.186;9.222;2024-03-07T09:43:03;7.74;76.78
75170;SHT31;63749;49.186;9.222;2024-03-07T09:45:30;7.58;73.79
75170;SHT31;63749;49.186;9.222;2024-03-07T09:47:57;7.59;74.78
75170;SHT31;63749;49.186;9.222;2024-03-07T09:50:23;7.49;73.54
75170;SHT31;63749;49.186;9.222;2024-03-07T09:52:54;7.76;76.09
75170;SHT31;63749;49.186;9.222;2024-03-07T09:55:20;7.52;73.98
75170;SHT31;63749;49.186;9.222;2024-03-07T09:57:48;7.74;74.13
75170;SHT31;63749;49.186;9.222;2024-03-07T10:00:17;7.76;73.23
75170;SHT31;63749;49.186;9.222;2024-03-07T10:03:02;7.49;72.34
75170;SHT31;63749;49.186;9.222;2024-03-07T10:05:30;7.53;72.46
75170;SHT31;63749;49.186;9.222;2024-03-07T10:07:56;7.69;73.73
75170;SHT31;63749;49.186;9.222;2024-03-07T10:10:21;7.62;74.41
75170;SHT31;63749;49.186;9.222;2024-03-07T10:12:48;7.62;73.11
75170;SHT31;63749;49.186;9.222;2024-03-07T10:15:13;7.98;73.95
75170;SHT31;63749;49.186;9.222;2024-03-07T10:17:39;8.21;73.48
75170;SHT31;63749;49.186;9.222;2024-03-07T10:20:06;8.28;71.56
75170;SHT31;63749;49.186;9.222;2024-03-07T10:22:36;8.27;71.52
75170;SHT31;63749;49.186;9.222;2024-03-07T10:25:03;8.04;72.29
75170;SHT31;63749;49.186;9.222;2024-03-07T10:27:28;8.13;73.15
75170;SHT31;63749;49.186;9.222;2024-03-07T10:29:54;8.41;73.42
75170;SHT31;63749;49.186;9.222;2024-03-07T10:32:22;8.10;71.31
75170;SHT31;63749;49.186;9.222;2024-03-07T10:34:49;8.08;71.52
75170;SHT31;63749;49.186;9.222;2024-03-07T10:37:15;8.41;70.97
75170;SHT31;63749;49.186;9.222;2024-03-07T10:39:44;8.55;70.29
75170;SHT31;63749;49.186;9.222;2024-03-07T10:42:13;8.87;70.93
75170;SHT31;63749;49.186;9.222;2024-03-07T10:44:43;9.14;71.31
75170;SHT31;63749;49.186;9.222;2024-03-07T10:47:15;9.33;68.42
75170;SHT31;63749;49.186;9.222;2024-03-07T10:50:00;8.89;69.77
75170;SHT31;63749;49.186;9.222;2024-03-07T10:52:39;8.65;70.39
75170;SHT31;63749;49.186;9.222;2024-03-07T10:55:29;8.71;70.70
75170;SHT31;63749;49.186;9.222;2024-03-07T10:58:09;8.86;70.36
75170;SHT31;63749;49.186;9.222;2024-03-07T11:00:41;8.79;70.18
75170;SHT31;63749;49.186;9.222;2024-03-07T11:03:12;8.86;69.91
75170;SHT31;63749;49.186;9.222;2024-03-07T11:05:39;8.97;70.86
75170;SHT31;63749;49.186;9.222;2024-03-07T11:08:07;9.30;69.64
75170;SHT31;63749;49.186;9.222;2024-03-07T11:10:37;9.26;69.61
75170;SHT31;63749;49.186;9.222;2024-03-07T11:13:06;9.09;69.19
75170;SHT31;63749;49.186;9.222;2024-03-07T11:15:33;9.58;68.75
75170;SHT31;63749;49.186;9.222;2024-03-07T11:17:59;9.89;68.41
75170;SHT31;63749;49.186;9.222;2024-03-07T11:20:35;10.47;66.35
75170;SHT31;63749;49.186;9.222;2024-03-07T11:23:00;10.81;66.82
75170;SHT31;63749;49.186;9.222;2024-03-07T11:25:28;10.92;65.80
75170;SHT31;63749;49.186;9.222;2024-03-07T11:27:56;10.57;65.44
75170;SHT31;63749;49.186;9.222;2024-03-07T11:30:23;10.51;64.85
75170;SHT31;63749;49.186;9.222;2024-03-07T11:32:49;10.81;64.14
75170;SHT31;63749;49.186;9.222;2024-03-07T11:35:21;11.25;64.82
75170;SHT31;63749;49.186;9.222;2024-03-07T11:37:58;11.81;63.18
75170;SHT31;63749;49.186;9.222;2024-03-07T11:42:54;12.18;60.52
75170;SHT31;63749;49.186;9.222;2024-03-07T11:45:21;12.22;61.49
75170;SHT31;63749;49.186;9.222;2024-03-07T11:47:58;12.25;61.64
75170;SHT31;63749;49.186;9.222;2024-03-07T11:50:32;12.16;60.94
75170;SHT31;63749;49.186;9.222;2024-03-07T11:53:01;12.25;59.77
75170;SHT31;63749;49.186;9.222;2024-03-07T11:55:27;12.78;59.22
75170;SHT31;63749;49.186;9.222;2024-03-07T11:58:10;13.31;59.14
75170;SHT31;63749;49.186;9.222;2024-03-07T12:00:44;13.16;58.01
75170;SHT31;63749;49.186;9.222;2024-03-07T12:03:13;13.14;57.57
75170;SHT31;63749;49.186;9.222;2024-03-07T12:05:40;13.31;57.13
75170;SHT31;63749;49.186;9.222;2024-03-07T12:08:06;13.13;57.02
75170;SHT31;63749;49.186;9.222;2024-03-07T12:10:32;13.44;57.53
75170;SHT31;63749;49.186;9.222;2024-03-07T12:12:59;13.33;57.24
75170;SHT31;63749;49.186;9.222;2024-03-07T12:15:26;13.02;58.52
75170;SHT31;63749;49.186;9.222;2024-03-07T12:17:52;12.92;57.60
75170;SHT31;63749;49.186;9.222;2024-03-07T12:20:18;12.53;58.80
75170;SHT31;63749;49.186;9.222;2024-03-07T12:23:03;12.49;58.51
75170;SHT31;63749;49.186;9.222;2024-03-07T12:25:31;12.63;58.80
75170;SHT31;63749;49.186;9.222;2024-03-07T12:28:07;12.56;58.63
75170;SHT31;63749;49.186;9.222;2024-03-07T12:30:54;12.73;58.73
75170;SHT31;63749;49.186;9.222;2024-03-07T12:33:22;13.03;58.20
75170;SHT31;63749;49.186;9.222;2024-03-07T12:35:52;12.87;58.78
75170;SHT31;63749;49.186;9.222;2024-03-07T12:38:21;12.53;59.15
75170;SHT31;63749;49.186;9.222;2024-03-07T12:41:04;12.29;58.36
75170;SHT31;63749;49.186;9.222;2024-03-07T12:43:31;12.18;59.45
75170;SHT31;63749;49.186;9.222;2024-03-07T12:45:58;11.80;60.02
75170;SHT31;63749;49.186;9.222;2024-03-07T12:48:24;11.80;59.85
75170;SHT31;63749;49.186;9.222;2024-03-07T12:50:51;11.76;60.38
75170;SHT31;63749;49.186;9.222;2024-03-07T12:53:22;11.90;60.43
75170;SHT31;63749;49.186;9.222;2024-03-07T12:55:51;12.00;60.23
75170;SHT31;63749;49.186;9.222;2024-03-07T12:58:17;12.52;58.54
75170;SHT31;63749;49.186;9.222;2024-03-07T13:00:44;12.53;58.97
75170;SHT31;63749;49.186;9.222;2024-03-07T13:03:10;12.56;58.81
75170;SHT31;63749;49.186;9.222;2024-03-07T13:05:38;12.50;57.85
75170;SHT31;63749;49.186;9.222;2024-03-07T13:08:08;12.34;58.34
75170;SHT31;63749;49.186;9.222;2024-03-07T13:10:44;12.02;58.86
75170;SHT31;63749;49.186;9.222;2024-03-07T13:13:10;11.94;60.40
75170;SHT31;63749;49.186;9.222;2024-03-07T13:15:37;12.08;59.09
75170;SHT31;63749;49.186;9.222;2024-03-07T13:18:05;12.68;58.22
75170;SHT31;63749;49.186;9.222;2024-03-07T13:20:31;12.59;57.96
75170;SHT31;63749;49.186;9.222;2024-03-07T13:22:57;13.34;54.73
75170;SHT31;63749;49.186;9.222;2024-03-07T13:25:25;13.55;54.29
75170;SHT31;63749;49.186;9.222;2024-03-07T13:28:01;14.41;52.96
75170;SHT31;63749;49.186;9.222;2024-03-07T13:30:28;13.36;53.61
75170;SHT31;63749;49.186;9.222;2024-03-07T13:32:55;13.33;54.92
75170;SHT31;63749;49.186;9.222;2024-03-07T13:35:22;13.65;54.67
75170;SHT31;63749;49.186;9.222;2024-03-07T13:37:49;13.13;56.92
75170;SHT31;63749;49.186;9.222;2024-03-07T13:40:15;13.94;54.80
75170;SHT31;63749;49.186;9.222;2024-03-07T13:42:51;15.49;51.05
75170;SHT31;63749;49.186;9.222;2024-03-07T13:45:21;16.22;48.70
75170;SHT31;63749;49.186;9.222;2024-03-07T13:47:47;17.20;47.08
75170;SHT31;63749;49.186;9.222;2024-03-07T13:50:18;16.44;46.90
75170;SHT31;63749;49.186;9.222;2024-03-07T13:52:48;16.47;47.50
75170;SHT31;63749;49.186;9.222;2024-03-07T13:55:51;17.37;45.96
75170;SHT31;63749;49.186;9.222;2024-03-07T14:27:01;14.33;51.13
75170;SHT31;63749;49.186;9.222;2024-03-07T14:32:22;14.38;51.69
75170;SHT31;63749;49.186;9.222;2024-03-07T14:35:00;14.83;50.39
75170;SHT31;63749;49.186;9.222;2024-03-07T14:37:36;14.13;50.72
75170;SHT31;63749;49.186;9.222;2024-03-07T14:40:09;13.67;52.58
75170;SHT31;63749;49.186;9.222;2024-03-07T14:42:39;13.65;53.27
75170;SHT31;63749;49.186;9.222;2024-03-07T14:45:07;14.19;51.71
75170;SHT31;63749;49.186;9.222;2024-03-07T14:47:33;14.64;50.70
75170;SHT31;63749;49.186;9.222;2024-03-07T14:49:59;15.82;47.99
75170;SHT31;63749;49.186;9.222;2024-03-07T14:52:27;14.91;49.45
75170;SHT31;63749;49.186;9.222;2024-03-07T14:54:54;15.54;48.74
75170;SHT31;63749;49.186;9.222;2024-03-07T14:57:19;15.53;48.38
75170;SHT31;63749;49.186;9.222;2024-03-07T14:59:45;13.75;52.47
75170;SHT31;63749;49.186;9.222;2024-03-07T15:02:12;14.09;51.41
75170;SHT31;63749;49.186;9.222;2024-03-07T15:04:39;14.54;51.33
75170;SHT31;63749;49.186;9.222;2024-03-07T15:07:06;15.08;50.59
75170;SHT31;63749;49.186;9.222;2024-03-07T15:09:35;15.66;48.75
75170;SHT31;63749;49.186;9.222;2024-03-07T15:12:01;14.77;48.73
75170;SHT31;63749;49.186;9.222;2024-03-07T15:14:27;13.37;52.00
75170;SHT31;63749;49.186;9.222;2024-03-07T15:16:52;13.24;53.25
75170;SHT31;63749;49.186;9.222;2024-03-07T15:19:18;13.03;54.16
75170;SHT31;63749;49.186;9.222;2024-03-07T15:21:44;13.30;53.03
75170;SHT31;63749;49.186;9.222;2024-03-07T15:24:09;13.43;53.25
75170;SHT31;63749;49.186;9.222;2024-03-07T15:26:36;12.99;53.42
75170;SHT31;63749;49.186;9.222;2024-03-07T15:29:01;13.17;52.91
75170;SHT31;63749;49.186;9.222;2024-03-07T15:31:27;12.73;54.80
75170;SHT31;63749;49.186;9.222;2024-03-07T15:33:52;12.37;55.29
75170;SHT31;63749;49.186;9.222;2024-03-07T15:36:18;11.91;55.63
75170;SHT31;63749;49.186;9.222;2024-03-07T15:38:44;11.65;55.79
75170;SHT31;63749;49.186;9.222;2024-03-07T15:41:11;11.90;55.63
75170;SHT31;63749;49.186;9.222;2024-03-07T15:43:37;11.84;56.43
75170;SHT31;63749;49.186;9.222;2024-03-07T15:46:03;11.42;57.62
75170;SHT31;63749;49.186;9.222;2024-03-07T15:48:48;11.56;56.59
75170;SHT31;63749;49.186;9.222;2024-03-07T15:51:14;11.39;57.36
75170;SHT31;63749;49.186;9.222;2024-03-07T15:53:39;11.25;57.59
75170;SHT31;63749;49.186;9.222;2024-03-07T15:56:06;11.05;58.72
75170;SHT31;63749;49.186;9.222;2024-03-07T15:58:33;11.00;58.77
75170;SHT31;63749;49.186;9.222;2024-03-07T16:00:58;10.94;59.08
75170;SHT31;63749;49.186;9.222;2024-03-07T16:03:24;10.80;59.50
75170;SHT31;63749;49.186;9.222;2024-03-07T16:05:50;10.60;60.40
75170;SHT31;63749;49.186;9.222;2024-03-07T16:08:17;10.47;61.35
75170;SHT31;63749;49.186;9.222;2024-03-07T16:10:43;10.14;61.59
75170;SHT31;63749;49.186;9.222;2024-03-07T16:13:12;10.06;63.06
75170;SHT31;63749;49.186;9.222;2024-03-07T16:15:42;9.86;63.09
75170;SHT31;63749;49.186;9.222;2024-03-07T16:18:10;9.67;64.56